Time;durP1;ratioP1;P1;durP2;ratioP2;P2;SDS_P1;SDS_P2;PMS_P1;PMS_P2;Temp;Humidity;BMP_temperature;BMP_pressure;BME280_temperature;BME280_humidity;BME280_pressure;Samples;Min_cycle;Max_cycle;Signal;HPM_P1;HPM_P2
2021/06/03 00:02:08;;;;;;;8.07;3.47;;;18.50;63.90;;;;;;5117133;28;20024;-71
2021/06/03 00:04:34;;;;;;;7.07;3.40;;;18.50;63.30;;;;;;5117099;28;20540;-67
2021/06/03 00:07:00;;;;;;;6.65;3.20;;;18.50;62.70;;;;;;5116659;28;20032;-66
2021/06/03 00:09:26;;;;;;;5.80;3.50;;;18.50;62.60;;;;;;5116629;28;20547;-67
2021/06/03 00:11:52;;;;;;;5.60;3.55;;;18.50;62.70;;;;;;5116638;28;20030;-66
2021/06/03 00:14:19;;;;;;;4.10;3.30;;;18.40;63.10;;;;;;5116759;28;20102;-67
2021/06/03 00:16:45;;;;;;;4.60;3.22;;;18.40;62.80;;;;;;5116576;28;20027;-67
2021/06/03 00:19:11;;;;;;;6.00;3.80;;;18.30;63.40;;;;;;5116737;28;20073;-67
2021/06/03 00:21:39;;;;;;;6.75;3.38;;;18.20;63.70;;;;;;5116673;28;20032;-68
2021/06/03 00:24:06;;;;;;;9.05;3.58;;;18.20;63.40;;;;;;5116752;28;20027;-66
2021/06/03 00:26:33;;;;;;;4.82;3.40;;;18.20;63.50;;;;;;5116117;28;20027;-67
2021/06/03 00:29:00;;;;;;;8.18;3.30;;;18.20;63.80;;;;;;5116165;28;20048;-72
2021/06/03 00:31:25;;;;;;;5.45;3.25;;;18.20;63.50;;;;;;5116582;28;20020;-72
2021/06/03 00:33:51;;;;;;;4.90;3.50;;;18.10;63.80;;;;;;5116560;28;20038;-71
2021/06/03 00:36:17;;;;;;;6.13;3.53;;;18.10;64.10;;;;;;5116305;28;20051;-67
2021/06/03 00:38:43;;;;;;;7.95;3.58;;;18.00;64.30;;;;;;5116160;28;20027;-67
2021/06/03 00:41:09;;;;;;;5.00;3.40;;;18.00;64.30;;;;;;5116091;28;20501;-71
2021/06/03 00:43:36;;;;;;;6.43;3.20;;;18.00;64.50;;;;;;5116202;28;20023;-66
2021/06/03 00:46:04;;;;;;;5.55;3.22;;;17.90;64.30;;;;;;5115783;28;20027;-72
2021/06/03 00:48:31;;;;;;;6.10;3.42;;;17.90;64.70;;;;;;5115508;28;20468;-66
2021/06/03 00:50:59;;;;;;;4.97;3.45;;;17.90;64.60;;;;;;5115457;28;20546;-66
2021/06/03 00:53:26;;;;;;;5.78;3.40;;;17.90;64.80;;;;;;5115960;28;20092;-66
2021/06/03 00:55:54;;;;;;;12.40;3.25;;;17.90;65.20;;;;;;5116278;28;20034;-66
2021/06/03 00:58:21;;;;;;;7.07;3.55;;;17.90;65.40;;;;;;5114041;28;20038;-67
2021/06/03 01:00:48;;;;;;;3.60;3.30;;;17.90;65.10;;;;;;5112988;28;20589;-68
2021/06/03 01:03:14;;;;;;;3.90;3.40;;;17.90;65.20;;;;;;5112987;28;20544;-67
2021/06/03 01:05:46;;;;;;;5.95;3.50;;;17.80;65.30;;;;;;5114931;28;20055;-66
2021/06/03 01:08:17;;;;;;;6.00;3.05;;;17.80;65.60;;;;;;5115655;28;20030;-72
2021/06/03 01:10:55;;;;;;;5.53;3.40;;;17.80;65.60;;;;;;5097593;28;20383;-66
2021/06/03 01:13:21;;;;;;;5.22;3.30;;;17.80;65.60;;;;;;5115407;28;20039;-67
2021/06/03 01:15:48;;;;;;;7.53;3.50;;;17.80;65.70;;;;;;5115536;28;20353;-67
2021/06/03 01:18:15;;;;;;;6.90;3.88;;;17.80;65.80;;;;;;5115505;28;20102;-66
2021/06/03 01:20:43;;;;;;;5.45;3.90;;;17.80;65.60;;;;;;5115088;28;20080;-67
2021/06/03 01:23:17;;;;;;;6.82;3.55;;;17.70;65.60;;;;;;5115230;28;20107;-67
2021/06/03 01:25:45;;;;;;;6.43;3.60;;;17.80;65.40;;;;;;5115461;28;20020;-66
2021/06/03 01:28:12;;;;;;;6.00;3.33;;;17.70;65.50;;;;;;5114882;28;20110;-71
2021/06/03 01:30:44;;;;;;;5.65;3.83;;;17.70;65.70;;;;;;5115257;28;20035;-72
2021/06/03 01:33:17;;;;;;;12.48;4.07;;;17.70;65.50;;;;;;5115373;28;20028;-68
2021/06/03 01:35:47;;;;;;;14.57;3.83;;;17.70;65.10;;;;;;5114620;28;20028;-72
2021/06/03 01:38:15;;;;;;;9.63;4.10;;;17.70;65.00;;;;;;5115072;28;20446;-66
2021/06/03 01:40:44;;;;;;;8.88;4.40;;;17.60;65.00;;;;;;5114775;28;20084;-70
2021/06/03 01:43:12;;;;;;;8.90;4.15;;;17.50;65.20;;;;;;5114464;28;20092;-71
2021/06/03 01:45:38;;;;;;;8.35;4.00;;;17.60;65.20;;;;;;5114668;28;20035;-72
2021/06/03 01:48:06;;;;;;;7.45;3.88;;;17.50;65.30;;;;;;5114793;28;20051;-68
2021/06/03 01:50:33;;;;;;;7.05;3.80;;;17.50;65.40;;;;;;5114713;28;20035;-66
2021/06/03 01:53:00;;;;;;;4.35;3.47;;;17.50;65.60;;;;;;5114740;28;20020;-67
2021/06/03 01:55:26;;;;;;;6.82;3.85;;;17.30;65.60;;;;;;5114651;28;20356;-66
2021/06/03 01:57:52;;;;;;;5.13;3.15;;;17.20;65.50;;;;;;5114241;28;20555;-72
2021/06/03 02:00:20;;;;;;;5.85;3.28;;;17.20;65.90;;;;;;5114427;28;20036;-73
2021/06/03 02:02:46;;;;;;;4.70;3.47;;;17.20;65.60;;;;;;5114655;28;20068;-67
2021/06/03 02:05:13;;;;;;;12.00;3.70;;;17.20;65.40;;;;;;5114595;28;20479;-67
2021/06/03 02:07:38;;;;;;;5.13;3.50;;;17.20;65.40;;;;;;5114454;28;20015;-67
2021/06/03 02:10:06;;;;;;;12.32;3.90;;;17.20;65.50;;;;;;5114549;28;20132;-67
2021/06/03 02:12:37;;;;;;;10.18;3.80;;;17.20;65.80;;;;;;5114523;28;20395;-70
2021/06/03 02:15:06;;;;;;;8.25;3.80;;;17.20;65.60;;;;;;5114544;28;20103;-67
2021/06/03 02:17:40;;;;;;;10.32;3.83;;;17.20;65.50;;;;;;5113648;28;20521;-67
2021/06/03 02:20:15;;;;;;;6.13;3.72;;;17.10;65.80;;;;;;5114350;28;20492;-67
2021/06/03 02:22:44;;;;;;;7.47;3.60;;;17.10;66.00;;;;;;5114528;28;20106;-67
2021/06/03 02:25:11;;;;;;;8.05;3.63;;;17.10;66.10;;;;;;5114086;28;20038;-66
2021/06/03 02:27:38;;;;;;;7.15;4.40;;;17.00;66.10;;;;;;5114160;28;20077;-67
2021/06/03 02:30:09;;;;;;;5.60;3.72;;;17.00;66.30;;;;;;5095796;28;20442;-68
2021/06/03 02:32:36;;;;;;;6.22;3.35;;;16.90;66.70;;;;;;5114329;28;20028;-68
2021/06/03 02:35:09;;;;;;;10.10;4.10;;;16.90;66.60;;;;;;5114065;28;20020;-67
2021/06/03 02:37:38;;;;;;;6.68;3.67;;;16.90;66.90;;;;;;5114075;28;20108;-67
2021/06/03 02:40:07;;;;;;;5.57;3.97;;;16.90;67.10;;;;;;5114024;28;20032;-74
2021/06/03 02:42:35;;;;;;;9.50;3.90;;;16.90;67.70;;;;;;5113631;28;20035;-67
2021/06/03 02:45:03;;;;;;;5.00;4.07;;;16.90;67.10;;;;;;5113906;28;20395;-67
2021/06/03 02:47:29;;;;;;;8.23;3.78;;;16.90;67.20;;;;;;5113819;28;20031;-67
2021/06/03 02:49:55;;;;;;;6.95;4.35;;;16.90;67.20;;;;;;5113819;28;20031;-67
2021/06/03 02:52:20;;;;;;;6.10;3.70;;;16.90;67.00;;;;;;5114033;28;20099;-67
2021/06/03 02:54:46;;;;;;;6.32;4.35;;;16.90;66.80;;;;;;5113903;28;20031;-67
2021/06/03 02:57:12;;;;;;;8.38;4.10;;;16.90;66.70;;;;;;5113730;28;20020;-67
2021/06/03 02:59:37;;;;;;;10.75;4.05;;;16.90;66.60;;;;;;5113670;28;20095;-73
2021/06/03 03:02:04;;;;;;;7.85;3.53;;;16.90;66.60;;;;;;5113460;28;20028;-72
2021/06/03 03:04:29;;;;;;;5.93;3.47;;;16.90;66.50;;;;;;5113769;28;20024;-67
2021/06/03 03:06:55;;;;;;;7.53;3.72;;;16.80;66.70;;;;;;5113575;28;20049;-73
2021/06/03 03:09:21;;;;;;;7.20;4.10;;;16.80;67.10;;;;;;5113761;28;20026;-71
2021/06/03 03:11:46;;;;;;;5.38;3.20;;;16.80;67.10;;;;;;5113511;28;20016;-72
2021/06/03 03:14:12;;;;;;;6.82;3.30;;;16.80;67.00;;;;;;5113103;28;20074;-67
2021/06/03 03:16:38;;;;;;;8.90;3.53;;;16.70;66.90;;;;;;5113416;28;20502;-72
2021/06/03 03:19:04;;;;;;;6.60;3.50;;;16.70;67.30;;;;;;5113457;28;20387;-67
2021/06/03 03:21:29;;;;;;;6.60;3.60;;;16.60;67.50;;;;;;5113835;28;20031;-68
2021/06/03 03:23:55;;;;;;;4.32;2.90;;;16.60;67.50;;;;;;5113676;28;20152;-67
2021/06/03 03:26:21;;;;;;;4.97;3.00;;;16.60;67.20;;;;;;5113357;28;20391;-67
2021/06/03 03:28:46;;;;;;;5.63;3.58;;;16.70;67.00;;;;;;5113327;28;20048;-72
2021/06/03 03:31:12;;;;;;;7.03;3.33;;;16.70;67.10;;;;;;5113494;28;20476;-72
2021/06/03 03:33:38;;;;;;;3.83;2.95;;;16.70;67.00;;;;;;5113519;28;20028;-67
2021/06/03 03:36:05;;;;;;;4.25;3.05;;;16.70;67.00;;;;;;5113373;28;20107;-72
2021/06/03 03:38:31;;;;;;;7.13;3.70;;;16.70;67.00;;;;;;5113164;28;20027;-67
2021/06/03 03:40:57;;;;;;;5.95;4.07;;;16.70;67.00;;;;;;5113421;28;20509;-72
2021/06/03 03:43:23;;;;;;;7.90;4.07;;;16.60;67.00;;;;;;5113438;28;20027;-71
2021/06/03 03:45:49;;;;;;;8.27;4.40;;;16.70;67.20;;;;;;5113169;28;20038;-72
2021/06/03 03:48:15;;;;;;;10.85;4.32;;;16.70;67.30;;;;;;5113125;28;20095;-67
2021/06/03 03:50:41;;;;;;;7.07;4.10;;;16.70;67.30;;;;;;5113346;28;20027;-68
2021/06/03 03:53:07;;;;;;;15.57;4.28;;;16.70;67.40;;;;;;5113276;28;20023;-72
2021/06/03 03:55:33;;;;;;;11.73;3.90;;;16.70;67.40;;;;;;5113172;28;20386;-67
2021/06/03 03:57:59;;;;;;;8.63;3.65;;;16.70;67.30;;;;;;5113115;28;20020;-69
2021/06/03 04:00:29;;;;;;;9.68;4.15;;;16.70;67.50;;;;;;5113646;28;20028;-72
2021/06/03 04:02:55;;;;;;;4.65;3.63;;;16.70;67.50;;;;;;5113328;28;20047;-67
2021/06/03 04:05:21;;;;;;;8.73;3.75;;;16.70;67.50;;;;;;5112944;28;20443;-72
2021/06/03 04:07:47;;;;;;;12.95;4.03;;;16.70;67.50;;;;;;5113039;28;20019;-72
2021/06/03 04:10:18;;;;;;;9.48;3.83;;;16.70;66.90;;;;;;5113171;28;20034;-67
2021/06/03 04:12:44;;;;;;;10.30;3.92;;;16.60;66.70;;;;;;5113315;28;20027;-67
2021/06/03 04:15:11;;;;;;;10.38;3.95;;;16.60;66.70;;;;;;5113169;28;20031;-67
2021/06/03 04:17:37;;;;;;;9.10;3.67;;;16.60;66.80;;;;;;5112991;28;20055;-72
2021/06/03 04:20:09;;;;;;;14.35;3.90;;;16.60;66.90;;;;;;5112811;28;20032;-68
2021/06/03 04:22:35;;;;;;;12.75;4.60;;;16.50;67.00;;;;;;5113083;28;20076;-71
2021/06/03 04:25:02;;;;;;;8.95;3.60;;;16.50;67.10;;;;;;5112923;28;20064;-69
2021/06/03 04:27:27;;;;;;;11.27;4.05;;;16.50;66.80;;;;;;5116514;28;20035;-73
2021/06/03 04:29:53;;;;;;;9.07;4.18;;;16.50;66.60;;;;;;5116324;28;20043;-67
2021/06/03 04:32:19;;;;;;;11.80;3.75;;;16.40;66.60;;;;;;5116380;28;20148;-67
2021/06/03 04:34:45;;;;;;;10.68;4.13;;;16.50;66.90;;;;;;5116531;28;20027;-67
2021/06/03 04:37:11;;;;;;;7.97;3.88;;;16.40;67.10;;;;;;5116504;28;20038;-67
2021/06/03 04:39:37;;;;;;;10.07;3.90;;;16.40;67.40;;;;;;5115991;28;20095;-67
2021/06/03 04:42:05;;;;;;;11.48;4.30;;;16.40;67.40;;;;;;5116358;28;20526;-67
2021/06/03 04:44:31;;;;;;;12.95;6.53;;;16.40;68.10;;;;;;5116287;28;20027;-67
2021/06/03 04:46:56;;;;;;;16.30;4.90;;;16.40;67.50;;;;;;5116019;28;20032;-67
2021/06/03 04:49:22;;;;;;;21.08;4.93;;;16.40;67.60;;;;;;5116289;28;20027;-67
2021/06/03 04:51:48;;;;;;;35.53;5.75;;;16.40;67.60;;;;;;5116383;28;20460;-66
2021/06/03 04:54:14;;;;;;;22.33;5.30;;;16.50;67.70;;;;;;5116122;28;20031;-66
2021/06/03 04:56:40;;;;;;;22.60;4.80;;;16.50;67.80;;;;;;5116245;28;20019;-67
2021/06/03 04:59:05;;;;;;;14.13;4.90;;;16.50;68.20;;;;;;5116008;28;20023;-67
2021/06/03 05:01:31;;;;;;;21.30;4.57;;;16.60;68.40;;;;;;5115577;28;20105;-67
2021/06/03 05:03:57;;;;;;;19.98;4.20;;;16.60;68.50;;;;;;5115920;28;20020;-67
2021/06/03 05:06:23;;;;;;;21.80;4.25;;;16.70;68.60;;;;;;5115837;28;20031;-67
2021/06/03 05:08:48;;;;;;;10.43;4.03;;;16.70;69.20;;;;;;5113728;28;20076;-67
2021/06/03 05:11:14;;;;;;;8.88;3.50;;;16.80;69.60;;;;;;5113814;28;20028;-67
2021/06/03 05:13:40;;;;;;;6.00;3.00;;;16.80;69.40;;;;;;5114665;28;20449;-72
2021/06/03 05:16:07;;;;;;;5.07;3.55;;;16.90;69.00;;;;;;5114650;28;20024;-67
2021/06/03 05:18:33;;;;;;;7.15;3.25;;;16.90;69.40;;;;;;5115424;28;20027;-67
2021/06/03 05:20:59;;;;;;;4.85;3.00;;;;;;;;;;5114342;28;20376;-67
2021/06/03 05:23:24;;;;;;;5.40;3.90;;;17.00;68.40;;;;;;5114785;28;20023;-73
2021/06/03 05:25:50;;;;;;;7.30;3.60;;;17.10;69.00;;;;;;5115055;28;20051;-67
2021/06/03 05:28:16;;;;;;;7.30;3.05;;;17.10;69.00;;;;;;5115192;28;20090;-67
2021/06/03 05:30:42;;;;;;;8.80;3.60;;;17.20;68.90;;;;;;5115054;28;20024;-67
2021/06/03 05:33:09;;;;;;;8.00;3.03;;;17.20;68.50;;;;;;5115141;28;20043;-67
2021/06/03 05:35:35;;;;;;;10.00;3.35;;;17.20;67.70;;;;;;5115317;28;20031;-67
2021/06/03 05:38:01;;;;;;;6.28;3.42;;;17.30;66.80;;;;;;5114951;28;20028;-67
2021/06/03 05:40:28;;;;;;;13.05;3.83;;;17.40;66.70;;;;;;5115087;28;20043;-67
2021/06/03 05:42:55;;;;;;;9.77;3.20;;;17.40;67.00;;;;;;5115282;28;20042;-70
2021/06/03 05:45:22;;;;;;;6.78;2.78;;;17.50;66.80;;;;;;5115308;28;20072;-68
2021/06/03 05:47:48;;;;;;;6.65;3.10;;;17.50;66.10;;;;;;5115067;28;20031;-71
2021/06/03 05:50:16;;;;;;;8.40;2.80;;;17.60;65.60;;;;;;5114054;28;20020;-68
2021/06/03 05:52:43;;;;;;;8.95;3.58;;;17.60;65.20;;;;;;5113368;28;20416;-73
2021/06/03 05:55:11;;;;;;;6.50;3.58;;;17.70;65.80;;;;;;5096263;28;20024;-72
2021/06/03 05:57:37;;;;;;;13.63;3.90;;;17.70;65.60;;;;;;5114161;28;20379;-69
2021/06/03 06:00:15;;;;;;;10.35;3.70;;;17.80;66.60;;;;;;5103362;28;20032;-70
2021/06/03 06:02:47;;;;;;;13.18;3.65;;;17.80;66.20;;;;;;5094056;28;20035;-67
2021/06/03 06:08:01;;;;;;;10.40;2.95;;;17.80;66.70;;;;;;5093479;28;20503;-69
2021/06/03 06:10:27;;;;;;;8.38;3.00;;;17.90;66.60;;;;;;5102779;28;20020;-67
2021/06/03 06:12:53;;;;;;;4.88;2.70;;;17.90;65.40;;;;;;5111685;28;20027;-67
2021/06/03 06:15:19;;;;;;;6.68;2.58;;;18.00;65.50;;;;;;5112053;28;20392;-69
2021/06/03 06:17:45;;;;;;;6.07;3.00;;;18.00;65.00;;;;;;5114363;28;20027;-67
2021/06/03 06:20:12;;;;;;;6.35;3.10;;;18.10;65.10;;;;;;5114068;28;20024;-71
2021/06/03 06:22:38;;;;;;;7.13;3.28;;;18.10;65.30;;;;;;5113811;28;20463;-68
2021/06/03 06:25:04;;;;;;;6.10;2.80;;;18.20;65.20;;;;;;5114330;28;20025;-67
2021/06/03 06:27:30;;;;;;;7.13;3.42;;;18.20;65.20;;;;;;5114111;28;20031;-68
2021/06/03 06:29:56;;;;;;;14.68;3.38;;;18.30;64.30;;;;;;5113765;28;20047;-67
2021/06/03 06:32:22;;;;;;;11.27;4.10;;;18.40;64.80;;;;;;5114135;28;20387;-67
2021/06/03 06:34:47;;;;;;;13.35;3.45;;;18.40;65.10;;;;;;5114322;28;20043;-67
2021/06/03 06:37:13;;;;;;;19.45;3.50;;;18.40;64.80;;;;;;5113753;28;20041;-67
2021/06/03 06:39:39;;;;;;;15.32;3.40;;;18.50;65.10;;;;;;5113682;28;20020;-67
2021/06/03 06:42:05;;;;;;;12.98;3.60;;;18.50;65.00;;;;;;5113948;28;20029;-72
2021/06/03 06:44:31;;;;;;;11.40;3.13;;;18.60;65.70;;;;;;5113358;28;20023;-68
2021/06/03 06:46:56;;;;;;;11.52;3.58;;;18.60;65.10;;;;;;5113161;28;20027;-68
2021/06/03 06:49:22;;;;;;;7.68;3.63;;;18.60;64.80;;;;;;5112515;28;20026;-67
2021/06/03 06:51:48;;;;;;;13.20;3.20;;;18.70;64.30;;;;;;5113995;28;20028;-67
2021/06/03 06:54:14;;;;;;;13.10;3.22;;;18.80;64.60;;;;;;5114039;28;20107;-67
2021/06/03 06:56:39;;;;;;;9.07;3.10;;;18.80;64.40;;;;;;5113837;28;20031;-67
2021/06/03 06:59:05;;;;;;;12.05;3.42;;;18.90;64.40;;;;;;5113959;28;20062;-67
2021/06/03 07:01:32;;;;;;;8.48;2.97;;;18.90;63.90;;;;;;5113972;28;20423;-67
2021/06/03 07:03:57;;;;;;;9.98;3.30;;;19.00;63.90;;;;;;5113902;28;20031;-67
2021/06/03 07:06:23;;;;;;;6.60;3.33;;;19.00;63.70;;;;;;5113702;28;20028;-67
2021/06/03 07:08:49;;;;;;;15.13;3.00;;;19.10;64.00;;;;;;5113852;28;20076;-72
2021/06/03 07:11:16;;;;;;;6.55;2.72;;;19.10;63.60;;;;;;5113660;28;20379;-67
2021/06/03 07:13:41;;;;;;;7.00;3.05;;;19.20;63.40;;;;;;5113776;28;20028;-67
2021/06/03 07:16:07;;;;;;;7.13;2.72;;;19.30;62.60;;;;;;5113540;28;20024;-67
2021/06/03 07:18:33;;;;;;;5.40;3.03;;;19.30;62.30;;;;;;5113829;28;20024;-72
2021/06/03 07:20:59;;;;;;;5.90;2.70;;;19.40;61.90;;;;;;5113810;28;20039;-67
2021/06/03 07:23:24;;;;;;;6.32;2.47;;;19.50;61.60;;;;;;5111076;28;20482;-67
2021/06/03 07:25:52;;;;;;;9.75;3.15;;;19.60;61.60;;;;;;5112818;28;20035;-67
2021/06/03 07:28:18;;;;;;;8.95;2.55;;;19.60;62.10;;;;;;5112773;28;20440;-68
2021/06/03 07:30:43;;;;;;;5.18;2.60;;;19.70;62.60;;;;;;5113087;28;20068;-67
2021/06/03 07:33:09;;;;;;;5.32;2.95;;;19.80;62.80;;;;;;5112707;28;20073;-67
2021/06/03 07:35:36;;;;;;;8.63;2.58;;;19.90;61.90;;;;;;5112456;28;20459;-68
2021/06/03 07:38:03;;;;;;;7.63;2.45;;;20.00;60.70;;;;;;5111926;28;20073;-67
2021/06/03 07:40:31;;;;;;;9.73;2.42;;;20.10;60.30;;;;;;5112239;28;20487;-67
2021/06/03 07:42:57;;;;;;;12.07;2.33;;;20.10;60.40;;;;;;5111736;28;20379;-68
2021/06/03 07:45:26;;;;;;;8.45;2.47;;;20.20;59.40;;;;;;5112760;28;20052;-67
2021/06/03 07:47:55;;;;;;;4.72;2.38;;;20.30;59.10;;;;;;5111609;28;20028;-67
2021/06/03 07:50:22;;;;;;;3.90;2.33;;;20.30;57.60;;;;;;5112774;28;20587;-67
2021/06/03 07:52:48;;;;;;;7.85;2.72;;;20.40;56.70;;;;;;5113414;28;20028;-67
2021/06/03 07:55:17;;;;;;;7.85;2.20;;;20.50;56.30;;;;;;5112007;28;20413;-67
2021/06/03 07:57:44;;;;;;;6.45;2.40;;;20.60;56.60;;;;;;5112493;28;20053;-67
2021/06/03 08:00:12;;;;;;;5.40;2.33;;;20.70;55.20;;;;;;5113938;28;20050;-67
2021/06/03 08:02:38;;;;;;;5.47;2.30;;;20.70;53.80;;;;;;5117045;28;20027;-67
2021/06/03 08:05:06;;;;;;;5.43;2.50;;;20.80;53.20;;;;;;5117019;28;20613;-68
2021/06/03 08:07:31;;;;;;;5.82;2.40;;;20.90;53.70;;;;;;5115288;28;20098;-76
2021/06/03 08:09:57;;;;;;;5.20;2.60;;;20.90;53.40;;;;;;5116117;28;20102;-75
2021/06/03 08:12:23;;;;;;;3.85;2.08;;;21.00;54.70;;;;;;5116861;28;20056;-76
2021/06/03 08:14:48;;;;;;;7.55;2.42;;;21.00;55.50;;;;;;5116763;28;20161;-77
2021/06/03 08:17:15;;;;;;;5.85;2.28;;;21.20;55.80;;;;;;5116565;28;20042;-70
2021/06/03 08:19:40;;;;;;;4.20;2.42;;;21.30;56.10;;;;;;5116877;28;20391;-66
2021/06/03 08:22:06;;;;;;;4.03;2.28;;;21.30;56.60;;;;;;5111634;28;20098;-74
2021/06/03 08:24:32;;;;;;;3.80;2.20;;;21.40;56.70;;;;;;5095950;28;20393;-72
2021/06/03 08:26:57;;;;;;;4.70;2.28;;;21.50;56.20;;;;;;5096019;28;20062;-68
2021/06/03 08:29:23;;;;;;;6.78;2.70;;;21.60;56.30;;;;;;5102353;28;20044;-75
2021/06/03 08:31:50;;;;;;;2.97;1.80;;;21.70;54.90;;;;;;5131807;22;20567;-71
2021/06/03 08:34:17;;;;;;;4.55;2.30;;;21.80;51.80;;;;;;5116188;28;20055;-71
2021/06/03 08:36:43;;;;;;;7.53;2.35;;;21.90;52.40;;;;;;5116024;28;20023;-71
2021/06/03 08:39:09;;;;;;;7.32;2.40;;;21.90;52.40;;;;;;5116287;28;20023;-71
2021/06/03 08:41:45;;;;;;;3.05;2.08;;;22.00;53.20;;;;;;5116264;28;20028;-71
2021/06/03 08:44:12;;;;;;;6.40;2.35;;;22.10;53.40;;;;;;5116412;28;20058;-71
2021/06/03 08:46:39;;;;;;;10.38;2.30;;;22.20;53.30;;;;;;5116095;28;20019;-71
2021/06/03 08:49:08;;;;;;;5.93;2.88;;;22.30;53.20;;;;;;5116229;28;20016;-71
2021/06/03 08:51:33;;;;;;;5.97;2.80;;;22.40;52.80;;;;;;5116082;28;20023;-71
2021/06/03 08:53:59;;;;;;;6.90;2.40;;;22.50;53.10;;;;;;5116081;28;20390;-72
2021/06/03 08:56:26;;;;;;;6.00;2.30;;;22.60;53.40;;;;;;5115947;28;20020;-71
2021/06/03 08:59:00;;;;;;;7.95;2.90;;;22.70;53.00;;;;;;5115788;28;20403;-72
2021/06/03 09:01:30;;;;;;;7.93;2.83;;;22.80;52.10;;;;;;5115731;28;20046;-71
2021/06/03 09:03:57;;;;;;;3.33;2.30;;;22.90;50.20;;;;;;5115977;28;20102;-71
2021/06/03 09:06:23;;;;;;;5.32;2.30;;;22.90;49.80;;;;;;5115722;28;20035;-71
2021/06/03 09:08:50;;;;;;;5.35;2.00;;;23.00;49.90;;;;;;5115592;28;20028;-72
2021/06/03 09:11:19;;;;;;;9.95;2.15;;;23.10;48.70;;;;;;5114840;28;20527;-71
2021/06/03 09:13:52;;;;;;;7.75;2.20;;;23.10;48.90;;;;;;5115701;28;20019;-71
2021/06/03 09:16:21;;;;;;;3.08;2.30;;;23.20;49.10;;;;;;5115851;28;20031;-71
2021/06/03 09:18:58;;;;;;;4.97;2.35;;;23.30;48.40;;;;;;5115491;28;20023;-71
2021/06/03 09:21:29;;;;;;;5.72;2.33;;;23.40;49.00;;;;;;5115568;28;20027;-71
2021/06/03 09:24:04;;;;;;;4.72;2.53;;;23.50;49.00;;;;;;5115376;28;20055;-72
2021/06/03 09:26:35;;;;;;;9.65;2.53;;;23.50;47.10;;;;;;5115439;28;20487;-72
2021/06/03 09:29:03;;;;;;;5.22;2.10;;;23.60;46.30;;;;;;5115442;28;20098;-72
2021/06/03 09:31:35;;;;;;;3.65;1.92;;;23.70;47.70;;;;;;5115270;28;20482;-71
2021/06/03 09:34:04;;;;;;;6.10;2.38;;;23.80;49.00;;;;;;5115518;28;20027;-71
2021/06/03 09:36:50;;;;;;;4.43;2.30;;;23.90;48.70;;;;;;5115013;28;20054;-71
2021/06/03 09:39:23;;;;;;;7.95;2.47;;;24.00;47.20;;;;;;5115381;28;20026;-71
2021/06/03 09:42:01;;;;;;;4.93;2.03;;;24.00;48.00;;;;;;5113842;28;20868;-70
2021/06/03 09:44:33;;;;;;;4.68;1.90;;;24.20;48.80;;;;;;5112275;28;20068;-69
2021/06/03 09:47:15;;;;;;;6.60;2.08;;;24.30;46.40;;;;;;5112202;28;20039;-69
2021/06/03 09:49:43;;;;;;;8.98;2.15;;;24.30;45.70;;;;;;5112020;28;20028;-71
2021/06/03 09:52:09;;;;;;;3.45;2.33;;;24.30;45.20;;;;;;5111777;28;20015;-72
2021/06/03 09:54:36;;;;;;;3.08;1.90;;;24.40;43.70;;;;;;5113489;28;20164;-72
2021/06/03 09:57:08;;;;;;;5.15;1.90;;;24.40;44.90;;;;;;5114055;28;20028;-72
2021/06/03 09:59:37;;;;;;;5.20;2.08;;;24.50;44.50;;;;;;5114939;28;20478;-71
2021/06/03 10:02:18;;;;;;;4.80;1.83;;;24.50;45.60;;;;;;5114732;28;20533;-71
2021/06/03 10:04:45;;;;;;;4.70;2.07;;;24.50;46.10;;;;;;5115016;28;20391;-71
2021/06/03 10:07:12;;;;;;;4.65;2.10;;;24.60;45.40;;;;;;5114685;28;20261;-72
2021/06/03 10:09:41;;;;;;;6.50;2.38;;;24.60;44.90;;;;;;5096225;28;20022;-71
2021/06/03 10:12:09;;;;;;;3.28;2.00;;;24.70;45.40;;;;;;5114472;28;20383;-72
2021/06/03 10:14:37;;;;;;;4.97;2.30;;;24.70;47.70;;;;;;5114403;28;20039;-72
2021/06/03 10:17:15;;;;;;;4.65;2.08;;;24.70;47.00;;;;;;5114041;28;20016;-70
2021/06/03 10:19:41;;;;;;;9.05;2.25;;;24.80;46.80;;;;;;5114220;28;20047;-71
2021/06/03 10:22:13;;;;;;;3.08;2.28;;;24.80;46.10;;;;;;5114165;28;20031;-71
2021/06/03 10:24:56;;;;;;;3.35;1.92;;;24.80;45.20;;;;;;5113237;28;20019;-71
2021/06/03 10:27:26;;;;;;;7.32;2.20;;;24.90;42.60;;;;;;5114421;28;20476;-72
2021/06/03 10:29:53;;;;;;;7.28;2.30;;;24.90;44.10;;;;;;5113761;28;20020;-72
2021/06/03 10:32:22;;;;;;;7.20;3.17;;;24.90;45.00;;;;;;5112424;28;20705;-71
2021/06/03 10:34:50;;;;;;;6.30;2.40;;;24.90;44.90;;;;;;5112288;28;20023;-71
2021/06/03 10:37:17;;;;;;;7.63;2.22;;;25.00;44.70;;;;;;5113485;28;20092;-72
2021/06/03 10:39:45;;;;;;;6.30;2.25;;;25.00;42.10;;;;;;5113889;28;20054;-72
2021/06/03 10:42:13;;;;;;;6.55;2.22;;;25.00;42.40;;;;;;5113760;28;20103;-72
2021/06/03 10:44:41;;;;;;;6.43;1.98;;;25.00;42.30;;;;;;5114105;28;20468;-72
2021/06/03 10:47:10;;;;;;;12.52;2.70;;;25.10;44.20;;;;;;5113729;28;20035;-71
2021/06/03 10:49:36;;;;;;;5.60;1.98;;;25.10;43.40;;;;;;5113780;28;20023;-72
2021/06/03 10:52:07;;;;;;;10.70;2.42;;;25.10;44.30;;;;;;5113584;28;20469;-72
2021/06/03 10:54:46;;;;;;;7.65;2.75;;;25.20;41.50;;;;;;5113129;28;20020;-72
2021/06/03 10:57:15;;;;;;;6.47;2.00;;;25.20;41.50;;;;;;5113264;28;20429;-71
2021/06/03 10:59:41;;;;;;;5.78;2.10;;;25.20;41.60;;;;;;5113337;28;20471;-71
2021/06/03 11:02:09;;;;;;;9.57;2.38;;;25.20;43.90;;;;;;5113633;28;20042;-70
2021/06/03 11:04:38;;;;;;;10.38;2.13;;;25.20;43.00;;;;;;5113453;28;20027;-70
2021/06/03 11:07:06;;;;;;;7.20;2.17;;;25.30;42.80;;;;;;5113609;28;20038;-70
2021/06/03 11:09:40;;;;;;;4.70;1.88;;;25.30;43.10;;;;;;5113520;28;20015;-69
2021/06/03 11:12:09;;;;;;;6.35;2.20;;;25.30;44.10;;;;;;5113607;28;20035;-70
2021/06/03 11:15:02;;;;;;;6.18;2.20;;;25.40;42.10;;;;;;5113377;28;20534;-70
2021/06/03 11:17:57;;;;;;;6.10;2.47;;;25.30;42.60;;;;;;5113823;28;20024;-70
2021/06/03 11:20:37;;;;;;;6.47;2.10;;;25.30;43.10;;;;;;5113347;28;20027;-70
2021/06/03 11:23:42;;;;;;;4.47;2.40;;;25.40;43.50;;;;;;5113533;28;20066;-70
2021/06/03 11:26:08;;;;;;;5.28;2.05;;;25.40;44.70;;;;;;5113328;28;20430;-69
2021/06/03 11:28:34;;;;;;;4.82;2.38;;;25.40;43.30;;;;;;5113148;28;20039;-69
2021/06/03 11:31:20;;;;;;;4.63;2.10;;;25.50;44.00;;;;;;5113218;28;20078;-69
2021/06/03 11:34:09;;;;;;;2.78;2.00;;;25.50;45.10;;;;;;5113322;28;20464;-69
2021/06/03 11:36:37;;;;;;;8.30;2.00;;;25.50;43.30;;;;;;5117580;28;20027;-69
2021/06/03 11:39:27;;;;;;;6.20;2.40;;;25.50;44.30;;;;;;5117439;28;20023;-69
2021/06/03 11:41:53;;;;;;;5.88;1.80;;;25.50;42.70;;;;;;5117126;28;20042;-69
2021/06/03 11:44:18;;;;;;;4.30;2.15;;;25.60;44.70;;;;;;5117405;28;20016;-69
2021/06/03 11:47:04;;;;;;;5.63;2.00;;;25.60;44.30;;;;;;5117843;28;20027;-69
2021/06/03 11:49:33;;;;;;;4.15;1.73;;;25.60;43.00;;;;;;5116940;28;20039;-69
2021/06/03 11:52:19;;;;;;;8.18;2.05;;;25.60;43.60;;;;;;5117638;28;20031;-69
2021/06/03 11:54:57;;;;;;;3.67;2.05;;;25.70;43.90;;;;;;5117436;28;20026;-69
2021/06/03 11:57:26;;;;;;;6.65;2.42;;;25.80;44.70;;;;;;5116601;28;20023;-70
2021/06/03 11:59:59;;;;;;;3.22;1.75;;;25.80;45.60;;;;;;5116609;28;20107;-71
2021/06/03 12:02:49;;;;;;;6.68;2.53;;;25.80;45.10;;;;;;5117174;28;20444;-71
2021/06/03 12:05:16;;;;;;;4.22;2.08;;;25.80;44.20;;;;;;5116891;28;20043;-72
2021/06/03 12:07:53;;;;;;;8.18;1.88;;;25.80;42.00;;;;;;5116882;28;20476;-70
2021/06/03 12:10:21;;;;;;;2.42;1.83;;;25.80;43.40;;;;;;5116973;28;20107;-70
2021/06/03 12:12:47;;;;;;;6.28;1.80;;;25.80;42.80;;;;;;5116740;28;20471;-71
2021/06/03 12:15:23;;;;;;;6.72;2.08;;;25.80;41.20;;;;;;5116460;28;20028;-70
2021/06/03 12:17:58;;;;;;;3.83;2.00;;;25.80;42.20;;;;;;5116973;28;20024;-71
2021/06/03 12:20:26;;;;;;;3.67;1.80;;;25.90;42.10;;;;;;5116581;28;20109;-71
2021/06/03 12:22:52;;;;;;;6.65;1.80;;;25.90;41.30;;;;;;5116809;28;20069;-71
2021/06/03 12:25:17;;;;;;;3.65;1.85;;;26.00;41.70;;;;;;5116429;28;20023;-71
2021/06/03 12:27:46;;;;;;;8.70;1.90;;;25.90;41.90;;;;;;5116764;28;20447;-72
2021/06/03 12:30:21;;;;;;;2.40;1.77;;;26.00;40.00;;;;;;5116331;28;20023;-72
2021/06/03 12:33:07;;;;;;;4.72;1.48;;;25.90;40.20;;;;;;5116192;28;20600;-71
2021/06/03 12:35:45;;;;;;;3.83;1.70;;;25.90;40.20;;;;;;5115883;28;20425;-71
2021/06/03 12:38:42;;;;;;;2.08;1.52;;;25.90;41.30;;;;;;5116369;28;20015;-72
2021/06/03 12:41:22;;;;;;;4.88;1.60;;;25.90;41.40;;;;;;5116472;28;20479;-71
2021/06/03 12:44:02;;;;;;;5.43;1.70;;;26.00;39.40;;;;;;5116002;28;20395;-71
2021/06/03 12:46:40;;;;;;;4.10;1.75;;;26.00;40.50;;;;;;5115209;28;20032;-71
2021/06/03 12:49:14;;;;;;;9.00;1.60;;;26.00;39.20;;;;;;5116334;28;20024;-71
2021/06/03 12:51:59;;;;;;;7.65;1.90;;;26.00;39.80;;;;;;5116365;28;20489;-71
2021/06/03 12:54:34;;;;;;;3.00;1.75;;;26.10;40.30;;;;;;5114429;28;20028;-69
2021/06/03 12:57:01;;;;;;;3.38;1.80;;;26.10;41.80;;;;;;5115739;28;20094;-71